Latest Weather Observations for Newman Airport

IDW60801

Issued at 10:35 pm WST Wednesday 1 October 2014 (issued every 30 minutes, with the page automatically refreshed every 10 minutes)

About weather observations | Map of weather stations | Latest weather observations for WA | Other Formats
Station Details ID: 007176 Name: NEWMAN AERO Lat: -23.42 Lon: 119.80 Height: 524.0 m
Data from the previous 72 hours. | See also: Recent months at Newman Airport
Date/Time
WST
Temp
°C
App
Temp
°C
Dew
Point
Rel
Hum
%
Delta-T
°C
Wind Press
QNH
hPa
Press
MSL
hPa
Rain
since 9 am
mm
Dir
 
Spd
km/h
Gust
km/h
Spd
kts
Gust
kts
01/10:30pm 25.6 23.3 -2.1 16 12.6 WNW 0 7 0 4 1014.4 1011.1 0.0
01/10:00pm 26.3 22.7 -2.4 15 13.1 S 7 9 4 5 1014.5 1011.2 0.0
01/09:30pm 25.8 23.7 -1.1 17 12.5 SSE 0 0 0 0 1014.6 1011.3 0.0
01/09:00pm 26.3 22.9 -2.4 15 13.1 SSE 6 7 3 4 1014.6 1011.3 0.0
01/08:30pm 27.0 23.5 -2.7 14 13.6 SE 6 7 3 4 1014.5 1011.2 0.0
01/08:00pm 27.9 25.1 -3.0 13 14.1 ESE 2 7 1 4 1014.4 1011.1 0.0
01/07:30pm 30.3 26.4 -4.7 10 15.8 ESE 7 9 4 5 1014.1 1010.8 0.0
01/07:00pm 31.8 27.9 -4.9 9 16.7 E 7 9 4 5 1013.9 1010.6 0.0
01/06:30pm 32.8 28.8 -5.7 8 17.5 NE 7 11 4 6 1013.7 1010.4 0.0
01/06:00pm 34.5 28.5 -6.3 7 18.6 NE 17 24 9 13 1013.4 1010.0 0.0
01/05:30pm 35.3 29.4 -5.7 7 19.0 NNE 17 22 9 12 1012.9 1009.6 0.0
01/05:00pm 36.0 29.6 -5.2 7 19.3 NNE 20 32 11 17 1012.9 1009.6 0.0
01/04:30pm 36.3 29.3 -7.0 6 19.8 NNE 22 37 12 20 1012.9 1009.6 0.0
01/04:00pm 36.8 31.0 -4.6 7 19.7 NE 17 26 9 14 1012.8 1009.5 0.0
01/03:30pm 36.6 29.8 -4.7 7 19.6 NE 22 39 12 21 1012.8 1009.5 0.0
01/03:00pm 36.2 28.3 -5.0 7 19.4 NE 28 35 15 19 1013.0 1009.7 0.0
01/02:36pm 37.3 29.5 -4.2 7 19.9 N 28 46 15 25 1013.0 1009.7 0.0
01/02:30pm 36.2 29.8 -5.0 7 19.4 NE 20 32 11 17 1013.1 1009.8 0.0
01/02:12pm 36.6 27.9 -4.7 7 19.6 NNE 32 56 17 30 1013.1 1009.8 0.0
01/02:00pm 36.8 29.7 -4.6 7 19.7 NNE 24 41 13 22 1013.5 1010.1 0.0
01/01:30pm 37.1 30.8 -4.4 7 19.8 NNE 20 26 11 14 1013.8 1010.5 0.0
01/01:00pm 35.9 28.3 -5.2 7 19.2 ENE 26 35 14 19 1014.5 1011.2 0.0
01/12:30pm 35.2 27.6 -5.7 7 18.9 ENE 26 41 14 22 1015.1 1011.8 0.0
01/12:00pm 34.8 27.2 -6.0 7 18.7 ENE 26 43 14 23 1015.7 1012.4 0.0
01/11:30am 34.2 26.7 -4.7 8 18.1 NE 26 35 14 19 1016.3 1013.0 0.0
01/11:00am 33.6 26.8 -5.2 8 17.8 NE 22 35 12 19 1016.8 1013.5 0.0
01/10:30am 32.7 26.0 -4.3 9 17.2 E 22 35 12 19 1017.4 1014.1 0.0
01/10:00am 31.8 24.6 -4.9 9 16.7 ENE 24 35 13 19 1018.0 1014.7 0.0
01/09:30am 30.2 23.9 -6.1 9 16.0 ENE 19 26 10 14 1018.4 1015.1 0.0
01/09:00am 28.6 22.8 -4.7 11 14.8 E 17 20 9 11 1018.7 1015.4 0.0
01/08:30am 28.1 22.3 -5.1 11 14.7 ENE 17 22 9 12 1018.8 1015.6 0.0
01/08:00am 26.9 20.7 -4.9 12 13.9 E 19 30 10 16 1018.8 1015.6 0.0
01/07:30am 26.7 21.6 -5.0 12 13.9 E 13 20 7 11 1018.7 1016.5 0.0
01/07:00am 25.8 18.9 -5.7 12 13.5 E 22 33 12 18 1018.4 1016.2 0.0
01/06:30am 25.1 19.0 -4.2 14 12.8 E 19 26 10 14 1018.1 1015.9 0.0
01/06:00am 23.1 19.5 -1.8 19 11.2 ENE 7 13 4 7 1017.8 1015.5 0.0
01/05:30am 21.4 18.0 -0.6 23 10.0 W 7 11 4 6 1017.5 1015.2 0.0
01/05:00am 22.3 18.9 -0.4 22 10.4 W 7 15 4 8 1016.9 1014.7 0.0
01/04:30am 22.6 17.7 -0.8 21 10.7 W 15 20 8 11 1016.4 1014.2 0.0
01/04:00am 21.2 17.6 0.4 25 9.6 W 9 15 5 8 1016.0 1013.7 0.0
01/03:30am 22.2 20.1 -0.5 22 10.4 CALM 0 0 0 0 1015.4 1013.1 0.0
01/03:00am 23.7 21.3 -0.6 20 11.2 SE 2 7 1 4 1015.0 1012.8 0.0
01/02:30am 24.4 21.0 -0.7 19 11.7 ESE 7 11 4 6 1015.1 1012.9 0.0
01/02:00am 24.7 21.3 -0.4 19 11.7 ESE 7 11 4 6 1015.1 1012.9 0.0
01/01:30am 25.1 21.3 -0.9 18 12.1 ESE 9 15 5 8 1015.4 1013.1 0.0
01/01:00am 25.7 21.1 -1.2 17 12.5 E 13 17 7 9 1015.6 1013.3 0.0
01/12:30am 26.5 22.0 -0.5 17 12.8 ESE 13 20 7 11 1015.6 1013.3 0.0
01/12:00am 26.8 22.7 -0.3 17 12.9 E 11 17 6 9 1015.8 1013.5 0.0
 
Date/Time
WST
Temp
°C
App
Temp
°C
Dew
Point
Rel
Hum
%
Delta-T
°C
Wind Press
QNH
hPa
Press
MSL
hPa
Rain
since 9 am
mm
Dir
 
Spd
km/h
Gust
km/h
Spd
kts
Gust
kts
30/11:30pm 23.3 21.4 0.4 22 10.8 CALM 0 0 0 0 1016.0 1013.7 0.0
30/11:00pm 23.7 21.8 0.7 22 10.9 CALM 0 2 0 1 1016.1 1013.8 0.0
30/10:30pm 24.1 22.2 0.4 21 11.2 CALM 0 0 0 0 1016.2 1013.9 0.0
30/10:00pm 25.3 22.2 0.0 19 12.0 SE 6 7 3 4 1016.4 1014.2 0.0
30/09:30pm 26.5 23.3 -0.5 17 12.8 ESE 6 9 3 5 1016.4 1014.2 0.0
30/09:00pm 27.0 23.9 -0.1 17 13.0 ESE 6 9 3 5 1016.4 1014.2 0.0
30/08:30pm 27.7 23.9 -0.4 16 13.4 ESE 9 13 5 7 1016.3 1014.0 0.0
30/08:00pm 28.4 24.6 -0.7 15 13.9 ESE 9 11 5 6 1016.2 1013.9 0.0
30/07:30pm 29.3 25.5 -0.9 14 14.5 E 9 13 5 7 1015.9 1013.6 0.0
30/07:00pm 30.5 26.3 -1.0 13 15.2 ENE 11 17 6 9 1015.6 1013.3 0.0
30/06:30pm 31.3 27.8 -1.5 12 15.8 ENE 7 11 4 6 1015.4 1013.1 0.0
30/06:00pm 32.6 28.7 -1.7 11 16.6 NE 9 15 5 8 1015.0 1012.8 0.0
30/05:30pm 33.2 28.4 -2.5 10 17.1 E 13 17 7 9 1014.7 1012.5 0.0
30/05:00pm 33.9 29.6 -2.0 10 17.4 ESE 11 19 6 10 1014.4 1012.1 0.0
30/04:30pm 34.1 30.0 -3.2 9 17.8 NNE 9 19 5 10 1014.3 1012.0 0.0
30/04:00pm 34.3 29.8 -3.1 9 17.9 ENE 11 20 6 11 1014.3 1012.0 0.0
30/03:30pm 34.1 28.5 -3.2 9 17.8 E 17 26 9 14 1014.2 1011.9 0.0
30/03:00pm 34.4 29.9 -3.0 9 17.9 NE 11 20 6 11 1014.2 1011.9 0.0
30/02:30pm 33.7 29.0 -2.1 10 17.3 ENE 13 30 7 16 1014.5 1012.2 0.0
30/02:00pm 34.0 27.0 -3.3 9 17.8 NNE 24 39 13 21 1014.7 1012.5 0.0
30/01:30pm 33.4 27.3 -2.3 10 17.2 ESE 20 30 11 16 1015.0 1012.8 0.0
30/01:00pm 33.2 27.6 -2.5 10 17.1 SE 17 24 9 13 1015.2 1013.0 0.0
30/12:30pm 33.0 27.4 -2.6 10 17.0 ENE 17 24 9 13 1015.7 1013.4 0.0
30/12:00pm 32.5 26.3 -3.0 10 16.8 E 20 30 11 16 1016.3 1014.0 0.0
30/11:30am 31.9 24.9 -3.5 10 16.5 ESE 24 33 13 18 1016.9 1014.7 0.0
30/11:00am 31.2 24.3 -2.7 11 16.0 ENE 24 32 13 17 1017.4 1015.1 0.0
30/10:30am 30.1 23.5 -3.6 11 15.5 E 22 35 12 19 1017.8 1015.5 0.0
30/10:00am 29.8 22.8 -3.8 11 15.4 ESE 24 35 13 19 1018.1 1015.9 0.0
30/09:30am 29.0 22.4 -3.2 12 14.8 E 22 32 12 17 1018.2 1016.0 0.0
30/09:00am 27.6 20.1 -4.3 12 14.2 ESE 26 35 14 19 1018.2 1016.0 0.0
30/08:30am 26.9 19.4 -4.9 12 13.9 ESE 26 35 14 19 1018.1 1015.9 0.0
30/08:00am 25.7 18.6 -4.7 13 13.2 ESE 24 43 13 23 1018.1 1015.9 0.0
30/07:30am 24.1 18.8 -3.3 16 12.1 SE 15 20 8 11 1018.1 1015.9 0.0
30/07:00am 21.3 16.7 -1.3 22 10.1 S 13 19 7 10 1018.0 1015.7 0.0
30/06:30am 18.8 15.0 -0.6 27 8.6 SW 9 13 5 7 1017.7 1015.4 0.0
30/06:00am 16.7 12.6 -0.1 32 7.4 SW 11 11 6 6 1017.4 1015.1 0.0
30/05:30am 16.7 13.3 -0.5 31 7.5 SSW 7 9 4 5 1017.1 1014.9 0.0
30/05:00am 18.3 15.1 -0.5 28 8.3 W 6 7 3 4 1016.9 1014.7 0.0
30/04:30am 18.8 15.1 -0.1 28 8.5 SW 9 15 5 8 1016.7 1014.5 0.0
30/04:00am 18.0 14.3 0.2 30 8.0 WSW 9 11 5 6 1016.4 1014.2 0.0
30/03:30am 18.5 14.9 0.6 30 8.1 SW 9 13 5 7 1016.1 1013.8 0.0
30/03:00am 18.7 15.5 0.8 30 8.2 SW 7 9 4 5 1015.8 1013.5 0.0
30/02:30am 19.5 16.3 1.0 29 8.5 WSW 7 11 4 6 1015.8 1013.5 0.0
30/02:00am 20.1 16.6 1.0 28 8.9 WSW 9 11 5 6 1015.8 1013.5 0.0
30/01:30am 21.8 17.5 0.9 25 9.8 SW 13 15 7 8 1015.7 1013.4 0.0
30/01:00am 21.2 17.7 1.5 27 9.3 WSW 9 13 5 7 1015.8 1013.5 0.0
30/12:30am 21.6 18.1 1.3 26 9.6 SSW 9 11 5 6 1015.8 1013.5 0.0
30/12:00am 22.2 19.1 1.3 25 9.9 SSW 7 9 4 5 1015.9 1013.6 0.0
 
Date/Time
WST
Temp
°C
App
Temp
°C
Dew
Point
Rel
Hum
%
Delta-T
°C
Wind Press
QNH
hPa
Press
MSL
hPa
Rain
since 9 am
mm
Dir
 
Spd
km/h
Gust
km/h
Spd
kts
Gust
kts
29/11:30pm 23.4 20.4 1.7 24 10.5 SW 7 11 4 6 1016.0 1013.7 0.0
29/11:00pm 23.9 20.5 2.1 24 10.6 WSW 9 11 5 6 1016.0 1013.7 0.0
29/10:30pm 24.7 21.3 1.6 22 11.2 W 9 13 5 7 1016.2 1013.9 0.0
29/10:00pm 26.3 22.9 1.6 20 12.1 SW 9 17 5 9 1016.3 1014.0 0.0
29/09:30pm 27.2 23.4 1.6 19 12.6 SSW 11 13 6 7 1016.2 1013.9 0.0
29/09:00pm 27.1 23.8 2.2 20 12.4 SW 9 11 5 6 1016.2 1013.9 0.0
29/08:30pm 28.1 24.4 2.3 19 13.0 SW 11 13 6 7 1015.9 1013.6 0.0
29/08:00pm 28.6 25.2 2.0 18 13.3 SW 9 15 5 8 1015.7 1013.4 0.0
29/07:30pm 28.5 25.1 1.9 18 13.3 SSW 9 13 5 7 1015.1 1012.9 0.0
29/07:00pm 29.4 25.6 1.8 17 13.9 SSW 11 15 6 8 1014.9 1012.7 0.0
29/06:30pm 29.3 26.4 1.7 17 13.8 WNW 6 7 3 4 1014.4 1012.1 0.0
29/06:00pm 30.3 27.7 0.8 15 14.7 W 4 7 2 4 1014.1 1011.8 0.0
29/05:30pm 31.5 27.9 0.8 14 15.4 NNW 9 15 5 8 1013.8 1011.5 0.0
29/05:00pm 32.2 26.8 1.3 14 15.7 WNW 19 22 10 12 1013.5 1011.2 0.0
29/04:30pm 32.9 29.0 0.9 13 16.2 NNW 11 24 6 13 1013.4 1011.1 0.0
29/04:00pm 32.1 27.1 1.3 14 15.6 WNW 17 26 9 14 1013.4 1011.1 0.0
29/03:30pm 32.2 27.6 1.3 14 15.7 WNW 15 28 8 15 1013.4 1011.1 0.0
29/03:00pm 33.1 26.3 1.0 13 16.3 NNW 26 39 14 21 1013.5 1011.2 0.0
29/02:41pm 33.4 25.5 1.3 13 16.4 WNW 32 50 17 27 1013.4 1011.1 0.0
29/02:30pm 32.2 26.8 1.3 14 15.7 NW 19 30 10 16 1013.4 1011.1 0.0
29/02:00pm 33.6 28.2 1.4 13 16.5 NW 19 28 10 15 1013.6 1011.3 0.0
29/01:30pm 32.8 29.0 1.8 14 15.9 NNW 11 30 6 16 1014.1 1011.8 0.0
29/01:00pm 31.6 28.6 1.8 15 15.2 NNE 7 13 4 7 1014.6 1012.3 0.0
29/12:30pm 30.7 26.2 2.0 16 14.6 W 15 32 8 17 1015.1 1012.9 0.0
29/12:00pm 30.9 27.9 2.2 16 14.7 NW 7 19 4 10 1015.7 1013.4 0.0
29/11:30am 31.2 27.9 2.4 16 14.8 SSW 9 11 5 6 1016.2 1013.9 0.0
29/11:00am 29.9 27.1 3.0 18 13.8 ENE 7 13 4 7 1016.7 1014.5 0.0
29/10:30am 29.3 26.6 2.5 18 13.6 S 6 11 3 6 1017.0 1014.8 0.0
29/10:00am 29.1 26.4 2.4 18 13.5 ENE 6 11 3 6 1017.1 1014.9 0.0
29/09:30am 28.1 24.8 2.3 19 13.0 ESE 9 15 5 8 1017.4 1015.1 0.0
29/09:00am 26.7 22.8 3.2 22 11.9 SE 13 19 7 10 1017.5 1015.2 0.0
29/08:30am 25.2 21.4 3.8 25 10.9 ESE 13 19 7 10 1017.7 1015.4 0.0
29/08:00am 23.1 19.7 4.1 29 9.5 E 11 17 6 9 1017.7 1015.4 0.0
29/07:30am 21.3 18.4 4.4 33 8.4 ESE 9 13 5 7 1017.6 1015.3 0.0
29/07:00am 19.6 18.2 3.7 35 7.7 CALM 0 4 0 2 1017.2 1015.0 0.0
29/06:30am 16.4 15.0 3.5 42 6.1 CALM 0 0 0 0 1016.8 1014.6 0.0
29/06:00am 15.2 13.7 3.0 44 5.7 CALM 0 0 0 0 1016.6 1014.4 0.0
29/05:30am 15.1 11.9 3.0 44 5.6 SW 9 11 5 6 1016.2 1013.9 0.0
29/05:00am 15.0 12.1 2.5 43 5.7 WSW 7 9 4 5 1016.0 1013.7 0.0
29/04:30am 16.1 14.6 2.9 41 6.2 CALM 0 0 0 0 1015.9 1013.6 0.0
29/04:00am 16.7 13.8 2.7 39 6.5 WSW 7 9 4 5 1015.7 1013.4 0.0
29/03:30am 17.2 14.0 2.8 38 6.8 SW 9 11 5 6 1015.7 1013.4 0.0
29/03:00am 17.1 13.8 2.7 38 6.7 WSW 9 11 5 6 1015.7 1013.4 0.0
29/02:30am 18.1 14.9 2.8 36 7.2 SW 9 11 5 6 1015.8 1013.5 0.0
29/02:00am 18.3 14.7 3.0 36 7.3 SW 11 13 6 7 1015.8 1013.5 0.0
29/01:30am 18.5 15.3 2.8 35 7.5 SW 9 11 5 6 1016.0 1013.7 0.0
29/01:00am 18.7 15.4 2.5 34 7.7 WSW 9 11 5 6 1016.1 1013.8 0.0
29/12:30am 18.7 15.9 2.9 35 7.5 WSW 7 11 4 6 1016.0 1013.7 0.0
29/12:00am 19.5 16.6 2.8 33 8.0 SSW 7 11 4 6 1015.9 1013.6 0.0
 
Date/Time
WST
Temp
°C
App
Temp
°C
Dew
Point
Rel
Hum
%
Delta-T
°C
Wind Press
QNH
hPa
Press
MSL
hPa
Rain
since 9 am
mm
Dir
 
Spd
km/h
Gust
km/h
Spd
kts
Gust
kts
28/11:30pm 19.5 16.6 2.8 33 8.0 SSW 7 9 4 5 1016.0 1013.7 0.0
28/11:00pm 20.1 18.6 2.9 32 8.3 CALM 0 0 0 0 1015.9 1013.6 0.0

Other Formats:

Comma delimited format used in spreadsheet applications
http://www.bom.gov.au/fwo/IDW60801/IDW60801.94317.axf

JavaScript Object Notation format (JSON) in row-major order
http://www.bom.gov.au/fwo/IDW60801/IDW60801.94317.json